Terminal Aerodrome Forecast
Issued by NWS Twin Cities, MN

Home | Current Version | Previous Version | Graphics & Text | Print | Product List | Glossary On
Versions: 1 2 3 4 5 6 7 8 9 10 11 12 13 14 15
511
FTUS43 KMPX 110520
TAFSTC
TAF
KSTC 110520Z 1106/1206 VRB03KT P6SM BKN090
     FM111500 18005KT P6SM OVC050
     FM112100 21005KT P6SM OVC025
     FM120300 27004KT P6SM OVC015=

USA.gov is the U.S. government's official web portal to all federal, state and local government web resources and services.